sensor_id;sensor_type;location;lat;lon;timestamp;pressure;altitude;pressure_sealevel;temperature;humidity
43820;BME280;67762;52.476;6.046;2023-04-01T00:01:04;99017.19;;;9.74;95.14
43820;BME280;67762;52.476;6.046;2023-04-01T00:03:30;99024.34;;;9.74;95.06
43820;BME280;67762;52.476;6.046;2023-04-01T00:05:57;99017.97;;;9.75;95.17
43820;BME280;67762;52.476;6.046;2023-04-01T00:08:24;99019.03;;;9.74;95.11
43820;BME280;67762;52.476;6.046;2023-04-01T00:10:50;99021.69;;;9.74;95.22
43820;BME280;67762;52.476;6.046;2023-04-01T00:13:16;99025.97;;;9.75;95.39
43820;BME280;67762;52.476;6.046;2023-04-01T00:15:43;99029.47;;;9.75;95.03
43820;BME280;67762;52.476;6.046;2023-04-01T00:18:08;99020.63;;;9.75;94.88
43820;BME280;67762;52.476;6.046;2023-04-01T00:20:34;99028.63;;;9.75;95.00
43820;BME280;67762;52.476;6.046;2023-04-01T00:23:01;99024.97;;;9.76;94.94
43820;BME280;67762;52.476;6.046;2023-04-01T00:25:27;99037.44;;;9.75;95.44
43820;BME280;67762;52.476;6.046;2023-04-01T00:27:52;99036.44;;;9.76;95.26
43820;BME280;67762;52.476;6.046;2023-04-01T00:30:18;99031.09;;;9.76;95.23
43820;BME280;67762;52.476;6.046;2023-04-01T00:32:43;99032.94;;;9.76;95.36
43820;BME280;67762;52.476;6.046;2023-04-01T00:35:10;99037.25;;;9.77;95.19
43820;BME280;67762;52.476;6.046;2023-04-01T00:37:36;99032.72;;;9.77;95.05
43820;BME280;67762;52.476;6.046;2023-04-01T00:40:04;99037.03;;;9.78;95.19
43820;BME280;67762;52.476;6.046;2023-04-01T00:42:31;99033.56;;;9.78;95.35
43820;BME280;67762;52.476;6.046;2023-04-01T00:44:56;99028.22;;;9.78;95.56
43820;BME280;67762;52.476;6.046;2023-04-01T00:47:23;99033.56;;;9.78;95.54
43820;BME280;67762;52.476;6.046;2023-04-01T00:49:51;99033.56;;;9.78;95.48
43820;BME280;67762;52.476;6.046;2023-04-01T00:52:21;99036.22;;;9.78;95.63
43820;BME280;67762;52.476;6.046;2023-04-01T00:54:50;99038.88;;;9.78;95.65
43820;BME280;67762;52.476;6.046;2023-04-01T00:57:30;99038.69;;;9.79;95.63
43820;BME280;67762;52.476;6.046;2023-04-01T00:59:58;99039.72;;;9.78;95.46
43820;BME280;67762;52.476;6.046;2023-04-01T01:02:24;99039.72;;;9.78;95.77
43820;BME280;67762;52.476;6.046;2023-04-01T01:04:50;99037.88;;;9.79;95.46
43820;BME280;67762;52.476;6.046;2023-04-01T01:07:32;99041.38;;;9.79;95.47
43820;BME280;67762;52.476;6.046;2023-04-01T01:10:13;99038.47;;;9.81;95.83
43820;BME280;67762;52.476;6.046;2023-04-01T01:13:17;99036.84;;;9.80;95.29
43820;BME280;67762;52.476;6.046;2023-04-01T01:15:58;99042.97;;;9.80;95.47
43820;BME280;67762;52.476;6.046;2023-04-01T01:22:05;99042.97;;;9.80;95.72
43820;BME280;67762;52.476;6.046;2023-04-01T01:38:10;99049.13;;;9.81;95.76
43820;BME280;67762;52.476;6.046;2023-04-01T01:40:41;99058.56;;;9.83;95.90
43820;BME280;67762;52.476;6.046;2023-04-01T01:43:10;99051.41;;;9.84;96.10
43820;BME280;67762;52.476;6.046;2023-04-01T01:45:40;99048.72;;;9.84;96.14
43820;BME280;67762;52.476;6.046;2023-04-01T01:48:09;99051.22;;;9.85;96.01
43820;BME280;67762;52.476;6.046;2023-04-01T01:50:37;99054.06;;;9.84;96.12
43820;BME280;67762;52.476;6.046;2023-04-01T01:53:09;99058.38;;;9.85;95.96
43820;BME280;67762;52.476;6.046;2023-04-01T01:55:38;99062.66;;;9.86;96.42
43820;BME280;67762;52.476;6.046;2023-04-01T02:00:34;99068.81;;;9.86;95.92
43820;BME280;67762;52.476;6.046;2023-04-01T02:03:01;99071.47;;;9.86;96.27
43820;BME280;67762;52.476;6.046;2023-04-01T02:05:28;99064.53;;;9.85;95.61
43820;BME280;67762;52.476;6.046;2023-04-01T02:08:14;99074.97;;;9.87;96.00
43820;BME280;67762;52.476;6.046;2023-04-01T02:10:46;99077.63;;;9.87;96.56
43820;BME280;67762;52.476;6.046;2023-04-01T02:13:21;99081.13;;;9.87;96.46
43820;BME280;67762;52.476;6.046;2023-04-01T02:15:52;99074.97;;;9.87;96.06
43820;BME280;67762;52.476;6.046;2023-04-01T02:18:22;99086.22;;;9.89;96.04
43820;BME280;67762;52.476;6.046;2023-04-01T02:20:50;99079.47;;;9.86;96.27
43820;BME280;67762;52.476;6.046;2023-04-01T02:23:17;99085.41;;;9.88;95.92
43820;BME280;67762;52.476;6.046;2023-04-01T02:25:43;99077.41;;;9.88;96.22
43820;BME280;67762;52.476;6.046;2023-04-01T02:28:10;99092.59;;;9.88;96.05
43820;BME280;67762;52.476;6.046;2023-04-01T02:30:39;99089.28;;;9.86;96.03
43820;BME280;67762;52.476;6.046;2023-04-01T02:33:06;99096.28;;;9.87;96.05
43820;BME280;67762;52.476;6.046;2023-04-01T02:35:35;99096.50;;;9.85;96.41
43820;BME280;67762;52.476;6.046;2023-04-01T02:38:01;99098.34;;;9.85;96.55
43820;BME280;67762;52.476;6.046;2023-04-01T02:40:27;99094.00;;;9.84;96.75
43820;BME280;67762;52.476;6.046;2023-04-01T02:42:53;99091.34;;;9.84;96.57
43820;BME280;67762;52.476;6.046;2023-04-01T02:45:19;99097.50;;;9.84;96.47
43820;BME280;67762;52.476;6.046;2023-04-01T02:47:44;99106.31;;;9.85;96.66
43820;BME280;67762;52.476;6.046;2023-04-01T02:50:11;99105.50;;;9.84;96.43
43820;BME280;67762;52.476;6.046;2023-04-01T02:52:36;99100.34;;;9.83;96.73
43820;BME280;67762;52.476;6.046;2023-04-01T02:55:03;99098.50;;;9.83;96.44
43820;BME280;67762;52.476;6.046;2023-04-01T02:57:29;99104.66;;;9.84;96.81
43820;BME280;67762;52.476;6.046;2023-04-01T02:59:55;99104.88;;;9.82;96.93
43820;BME280;67762;52.476;6.046;2023-04-01T03:02:20;99104.88;;;9.82;96.75
43820;BME280;67762;52.476;6.046;2023-04-01T03:04:46;99110.22;;;9.82;97.06
43820;BME280;67762;52.476;6.046;2023-04-01T03:07:11;99110.22;;;9.82;96.62
43820;BME280;67762;52.476;6.046;2023-04-01T03:09:37;99114.50;;;9.83;96.36
43820;BME280;67762;52.476;6.046;2023-04-01T03:12:03;99114.50;;;9.83;96.69
43820;BME280;67762;52.476;6.046;2023-04-01T03:14:31;99119.00;;;9.83;97.05
43820;BME280;67762;52.476;6.046;2023-04-01T03:16:57;99120.66;;;9.84;97.19
43820;BME280;67762;52.476;6.046;2023-04-01T03:19:23;99124.97;;;9.85;96.80
43820;BME280;67762;52.476;6.046;2023-04-01T03:21:49;99123.31;;;9.84;97.08
43820;BME280;67762;52.476;6.046;2023-04-01T03:24:14;99125.97;;;9.84;96.58
43820;BME280;67762;52.476;6.046;2023-04-01T03:26:40;99132.31;;;9.83;97.17
43820;BME280;67762;52.476;6.046;2023-04-01T03:29:05;99135.19;;;9.81;96.85
43820;BME280;67762;52.476;6.046;2023-04-01T03:31:31;99134.19;;;9.82;97.44
43820;BME280;67762;52.476;6.046;2023-04-01T03:33:57;99139.50;;;9.82;96.91
43820;BME280;67762;52.476;6.046;2023-04-01T03:36:22;99144.00;;;9.82;97.01
43820;BME280;67762;52.476;6.046;2023-04-01T03:38:48;99142.16;;;9.82;97.43
43820;BME280;67762;52.476;6.046;2023-04-01T03:41:20;99144.84;;;9.82;96.94
43820;BME280;67762;52.476;6.046;2023-04-01T03:43:46;99142.16;;;9.82;96.84
43820;BME280;67762;52.476;6.046;2023-04-01T03:46:17;99146.66;;;9.82;97.35
43820;BME280;67762;52.476;6.046;2023-04-01T03:48:42;99143.19;;;9.81;96.86
43820;BME280;67762;52.476;6.046;2023-04-01T03:51:08;99150.16;;;9.82;96.59
43820;BME280;67762;52.476;6.046;2023-04-01T03:53:34;99155.50;;;9.82;97.34
43820;BME280;67762;52.476;6.046;2023-04-01T03:56:05;99154.66;;;9.82;97.10
43820;BME280;67762;52.476;6.046;2023-04-01T03:58:31;99151.16;;;9.81;97.04
43820;BME280;67762;52.476;6.046;2023-04-01T04:00:57;99159.16;;;9.81;97.27
43820;BME280;67762;52.476;6.046;2023-04-01T04:03:23;99155.50;;;9.82;97.44
43820;BME280;67762;52.476;6.046;2023-04-01T04:05:49;99156.50;;;9.81;96.89
43820;BME280;67762;52.476;6.046;2023-04-01T04:08:17;99158.34;;;9.81;97.23
43820;BME280;67762;52.476;6.046;2023-04-01T04:10:43;99167.16;;;9.81;97.33
43820;BME280;67762;52.476;6.046;2023-04-01T04:13:09;99169.81;;;9.81;97.50
43820;BME280;67762;52.476;6.046;2023-04-01T04:15:39;99166.31;;;9.81;97.38
43820;BME280;67762;52.476;6.046;2023-04-01T04:18:05;99169.81;;;9.81;97.55
43820;BME280;67762;52.476;6.046;2023-04-01T04:20:31;99178.81;;;9.80;97.11
43820;BME280;67762;52.476;6.046;2023-04-01T04:22:56;99176.16;;;9.80;97.06
43820;BME280;67762;52.476;6.046;2023-04-01T04:25:22;99173.69;;;9.79;97.18
43820;BME280;67762;52.476;6.046;2023-04-01T04:27:48;99178.41;;;9.77;97.30
43820;BME280;67762;52.476;6.046;2023-04-01T04:30:15;99181.88;;;9.77;96.93
43820;BME280;67762;52.476;6.046;2023-04-01T04:32:40;99181.88;;;9.77;97.29
43820;BME280;67762;52.476;6.046;2023-04-01T04:35:08;99194.00;;;9.80;97.47
43820;BME280;67762;52.476;6.046;2023-04-01T04:37:33;99191.53;;;9.78;97.47
43820;BME280;67762;52.476;6.046;2023-04-01T04:39:59;99190.69;;;9.78;97.08
43820;BME280;67762;52.476;6.046;2023-04-01T04:42:25;99191.53;;;9.78;97.40
43820;BME280;67762;52.476;6.046;2023-04-01T04:44:55;99202.78;;;9.80;97.64
43820;BME280;67762;52.476;6.046;2023-04-01T04:47:27;99201.16;;;9.79;97.01
43820;BME280;67762;52.476;6.046;2023-04-01T04:50:02;99202.59;;;9.82;97.32
43820;BME280;67762;52.476;6.046;2023-04-01T04:52:28;99207.72;;;9.83;97.17
43820;BME280;67762;52.476;6.046;2023-04-01T04:54:54;99212.88;;;9.85;97.60
43820;BME280;67762;52.476;6.046;2023-04-01T04:57:20;99221.47;;;9.87;97.32
43820;BME280;67762;52.476;6.046;2023-04-01T04:59:52;99218.81;;;9.87;97.10
43820;BME280;67762;52.476;6.046;2023-04-01T05:02:27;99219.81;;;9.86;97.01
43820;BME280;67762;52.476;6.046;2023-04-01T05:04:52;99222.91;;;9.89;97.29
43820;BME280;67762;52.476;6.046;2023-04-01T05:07:18;99226.19;;;9.91;97.37
43820;BME280;67762;52.476;6.046;2023-04-01T05:09:44;99228.69;;;9.93;97.26
43820;BME280;67762;52.476;6.046;2023-04-01T05:12:11;99227.47;;;9.95;97.12
43820;BME280;67762;52.476;6.046;2023-04-01T05:14:54;99230.31;;;9.94;97.39
43820;BME280;67762;52.476;6.046;2023-04-01T05:17:20;99237.50;;;9.93;97.46
43820;BME280;67762;52.476;6.046;2023-04-01T05:19:46;99240.97;;;9.94;97.22
43820;BME280;67762;52.476;6.046;2023-04-01T05:22:11;99247.94;;;9.95;97.58
43820;BME280;67762;52.476;6.046;2023-04-01T05:24:37;99241.59;;;9.96;97.72
43820;BME280;67762;52.476;6.046;2023-04-01T05:27:03;99247.53;;;9.98;97.13
43820;BME280;67762;52.476;6.046;2023-04-01T05:29:29;99256.38;;;9.98;97.32
43820;BME280;67762;52.476;6.046;2023-04-01T05:32:02;99247.97;;;10.02;97.24
43820;BME280;67762;52.476;6.046;2023-04-01T05:34:28;99255.97;;;10.02;97.46
43820;BME280;67762;52.476;6.046;2023-04-01T05:36:53;99261.69;;;10.05;97.67
43820;BME280;67762;52.476;6.046;2023-04-01T05:39:19;99265.00;;;10.07;97.44
43820;BME280;67762;52.476;6.046;2023-04-01T05:41:45;99268.91;;;10.11;97.01
43820;BME280;67762;52.476;6.046;2023-04-01T05:44:11;99264.25;;;10.13;97.63
43820;BME280;67762;52.476;6.046;2023-04-01T05:46:40;99274.91;;;10.13;97.67
43820;BME280;67762;52.476;6.046;2023-04-01T05:49:35;99272.25;;;10.13;97.48
43820;BME280;67762;52.476;6.046;2023-04-01T05:52:02;99275.13;;;10.18;97.12
43820;BME280;67762;52.476;6.046;2023-04-01T05:54:28;99283.53;;;10.22;97.64
43820;BME280;67762;52.476;6.046;2023-04-01T05:56:54;99284.19;;;10.24;97.01
43820;BME280;67762;52.476;6.046;2023-04-01T05:59:19;99286.63;;;10.25;97.46
43820;BME280;67762;52.476;6.046;2023-04-01T06:01:45;99287.47;;;10.26;97.72
43820;BME280;67762;52.476;6.046;2023-04-01T06:04:16;99291.97;;;10.25;97.24
43820;BME280;67762;52.476;6.046;2023-04-01T06:06:43;99297.13;;;10.27;97.54
43820;BME280;67762;52.476;6.046;2023-04-01T06:20:25;99316.81;;;10.32;97.28
43820;BME280;67762;52.476;6.046;2023-04-01T06:30:55;99323.19;;;10.38;97.01
43820;BME280;67762;52.476;6.046;2023-04-01T06:41:31;99341.69;;;10.52;97.86
43820;BME280;67762;52.476;6.046;2023-04-01T06:46:59;99346.03;;;10.67;97.09
43820;BME280;67762;52.476;6.046;2023-04-01T06:55:43;99354.31;;;10.85;96.94
43820;BME280;67762;52.476;6.046;2023-04-01T06:58:46;99352.47;;;10.85;97.52
43820;BME280;67762;52.476;6.046;2023-04-01T07:01:26;99356.59;;;10.88;96.98
43820;BME280;67762;52.476;6.046;2023-04-01T07:03:58;99369.09;;;10.87;97.89
43820;BME280;67762;52.476;6.046;2023-04-01T07:07:24;99366.63;;;10.86;97.76
43820;BME280;67762;52.476;6.046;2023-04-01T07:09:56;99372.38;;;10.89;97.76
43820;BME280;67762;52.476;6.046;2023-04-01T07:15:31;99380.41;;;11.02;96.72
43820;BME280;67762;52.476;6.046;2023-04-01T07:21:02;99395.63;;;11.02;97.11
43820;BME280;67762;52.476;6.046;2023-04-01T07:23:32;99392.34;;;11.06;97.78
43820;BME280;67762;52.476;6.046;2023-04-01T07:26:19;99402.81;;;11.08;97.09
43820;BME280;67762;52.476;6.046;2023-04-01T07:29:09;99397.69;;;11.06;97.37
43820;BME280;67762;52.476;6.046;2023-04-01T07:31:49;99406.91;;;11.04;97.61
43820;BME280;67762;52.476;6.046;2023-04-01T07:34:26;99416.75;;;11.03;96.95
43820;BME280;67762;52.476;6.046;2023-04-01T07:37:00;99413.47;;;11.01;97.26
43820;BME280;67762;52.476;6.046;2023-04-01T07:39:41;99421.66;;;11.00;96.86
43820;BME280;67762;52.476;6.046;2023-04-01T07:45:21;99427.84;;;11.00;97.18
43820;BME280;67762;52.476;6.046;2023-04-01T07:48:09;99433.63;;;11.10;96.49
43820;BME280;67762;52.476;6.046;2023-04-01T07:50:51;99432.41;;;11.13;96.48
43820;BME280;67762;52.476;6.046;2023-04-01T07:56:16;99438.81;;;11.32;96.22
43820;BME280;67762;52.476;6.046;2023-04-01T08:07:47;99465.81;;;11.83;96.26
43820;BME280;67762;52.476;6.046;2023-04-01T08:10:44;99466.22;;;11.86;96.87
43820;BME280;67762;52.476;6.046;2023-04-01T08:22:41;99478.13;;;11.97;96.21
43820;BME280;67762;52.476;6.046;2023-04-01T08:25:33;99478.75;;;11.72;96.31
43820;BME280;67762;52.476;6.046;2023-04-01T08:28:17;99484.84;;;11.47;96.71
43820;BME280;67762;52.476;6.046;2023-04-01T08:31:00;99490.97;;;11.34;96.23
43820;BME280;67762;52.476;6.046;2023-04-01T08:33:30;99494.25;;;11.23;96.21
43820;BME280;67762;52.476;6.046;2023-04-01T08:39:12;99497.25;;;11.07;95.71
43820;BME280;67762;52.476;6.046;2023-04-01T08:59:32;99525.53;;;10.95;95.20
43820;BME280;67762;52.476;6.046;2023-04-01T09:08:33;99535.34;;;11.29;94.98
43820;BME280;67762;52.476;6.046;2023-04-01T09:24:12;99554.25;;;11.27;95.81
43820;BME280;67762;52.476;6.046;2023-04-01T09:26:28;99557.09;;;11.26;95.13
43820;BME280;67762;52.476;6.046;2023-04-01T09:29:11;99556.81;;;11.07;95.90
43820;BME280;67762;52.476;6.046;2023-04-01T09:32:15;99565.41;;;11.03;95.64
43820;BME280;67762;52.476;6.046;2023-04-01T09:34:57;99572.94;;;10.93;95.16
43820;BME280;67762;52.476;6.046;2023-04-01T09:37:51;99574.59;;;10.94;95.29
43820;BME280;67762;52.476;6.046;2023-04-01T09:40:37;99575.41;;;10.94;95.62
43820;BME280;67762;52.476;6.046;2023-04-01T09:43:28;99571.53;;;10.97;95.17
43820;BME280;67762;52.476;6.046;2023-04-01T09:46:12;99591.41;;;10.94;95.35
43820;BME280;67762;52.476;6.046;2023-04-01T09:57:39;99602.19;;;11.07;95.43
43820;BME280;67762;52.476;6.046;2023-04-01T10:20:06;99632.31;;;11.77;94.42
43820;BME280;67762;52.476;6.046;2023-04-01T10:25:31;99646.13;;;12.00;94.45
43820;BME280;67762;52.476;6.046;2023-04-01T10:28:28;99646.13;;;11.93;95.36
43820;BME280;67762;52.476;6.046;2023-04-01T10:57:35;99669.63;;;11.63;94.48
43820;BME280;67762;52.476;6.046;2023-04-01T11:03:46;99672.84;;;11.52;94.20
43820;BME280;67762;52.476;6.046;2023-04-01T11:15:23;99692.56;;;11.79;93.86
43820;BME280;67762;52.476;6.046;2023-04-01T11:18:07;99692.72;;;11.71;93.83
43820;BME280;67762;52.476;6.046;2023-04-01T11:26:28;99708.00;;;11.90;94.05
43820;BME280;67762;52.476;6.046;2023-04-01T11:44:08;99738.75;;;12.20;94.46
43820;BME280;67762;52.476;6.046;2023-04-01T11:47:15;99718.41;;;12.26;94.57
43820;BME280;67762;52.476;6.046;2023-04-01T11:49:53;99740.22;;;12.23;94.04
43820;BME280;67762;52.476;6.046;2023-04-01T11:55:51;99749.09;;;12.37;93.71
43820;BME280;67762;52.476;6.046;2023-04-01T11:58:46;99755.25;;;12.30;93.44
43820;BME280;67762;52.476;6.046;2023-04-01T12:01:26;99759.53;;;12.25;93.69
43820;BME280;67762;52.476;6.046;2023-04-01T12:06:54;99770.47;;;12.23;92.04
43820;BME280;67762;52.476;6.046;2023-04-01T12:14:30;99776.63;;;12.24;91.41
43820;BME280;67762;52.476;6.046;2023-04-01T12:20:01;99789.06;;;12.58;91.97
43820;BME280;67762;52.476;6.046;2023-04-01T12:33:41;99806.44;;;12.21;90.42
43820;BME280;67762;52.476;6.046;2023-04-01T12:41:58;99829.25;;;12.10;90.24
43820;BME280;67762;52.476;6.046;2023-04-01T12:45:02;99839.44;;;11.94;89.60
43820;BME280;67762;52.476;6.046;2023-04-01T12:56:03;99860.84;;;10.81;89.59
43820;BME280;67762;52.476;6.046;2023-04-01T13:01:38;99866.06;;;10.53;91.10
43820;BME280;67762;52.476;6.046;2023-04-01T13:04:38;99874.19;;;10.45;91.02
43820;BME280;67762;52.476;6.046;2023-04-01T13:15:39;99895.78;;;10.36;92.47
43820;BME280;67762;52.476;6.046;2023-04-01T13:21:04;99908.84;;;10.45;92.16
43820;BME280;67762;52.476;6.046;2023-04-01T13:26:53;99923.19;;;10.44;92.28
43820;BME280;67762;52.476;6.046;2023-04-01T13:29:28;99922.66;;;10.49;92.86
43820;BME280;67762;52.476;6.046;2023-04-01T13:32:15;99925.69;;;10.46;92.86
43820;BME280;67762;52.476;6.046;2023-04-01T13:42:41;99949.94;;;10.36;93.15
43820;BME280;67762;52.476;6.046;2023-04-01T13:45:17;99951.63;;;10.37;93.16
43820;BME280;67762;52.476;6.046;2023-04-01T13:53:26;99960.25;;;10.39;93.17
43820;BME280;67762;52.476;6.046;2023-04-01T13:56:24;99967.97;;;10.34;93.82
43820;BME280;67762;52.476;6.046;2023-04-01T13:59:28;99969.16;;;10.32;93.86
43820;BME280;67762;52.476;6.046;2023-04-01T14:05:13;99983.44;;;10.24;93.73
43820;BME280;67762;52.476;6.046;2023-04-01T14:25:12;100017.91;;;10.03;94.22
43820;BME280;67762;52.476;6.046;2023-04-01T14:32:57;100035.78;;;9.94;94.30
43820;BME280;67762;52.476;6.046;2023-04-01T14:35:43;100033.47;;;9.91;93.76
43820;BME280;67762;52.476;6.046;2023-04-01T14:44:43;100049.09;;;9.80;93.92
43820;BME280;67762;52.476;6.046;2023-04-01T14:49:43;100051.06;;;9.78;94.07
43820;BME280;67762;52.476;6.046;2023-04-01T14:52:33;100069.09;;;9.76;94.63
43820;BME280;67762;52.476;6.046;2023-04-01T14:55:17;100039.97;;;9.74;94.61
43820;BME280;67762;52.476;6.046;2023-04-01T14:57:58;100075.13;;;9.70;93.95
43820;BME280;67762;52.476;6.046;2023-04-01T15:00:24;100076.94;;;9.69;94.00
43820;BME280;67762;52.476;6.046;2023-04-01T15:03:32;100089.91;;;9.72;94.05
43820;BME280;67762;52.476;6.046;2023-04-01T15:08:29;100092.50;;;9.80;94.51
43820;BME280;67762;52.476;6.046;2023-04-01T15:11:21;100101.41;;;9.73;94.47
43820;BME280;67762;52.476;6.046;2023-04-01T15:16:48;100122.41;;;9.68;94.02
43820;BME280;67762;52.476;6.046;2023-04-01T15:27:37;100136.91;;;9.65;94.02
43820;BME280;67762;52.476;6.046;2023-04-01T15:38:51;100163.28;;;9.44;93.79
43820;BME280;67762;52.476;6.046;2023-04-01T15:41:43;100169.34;;;9.38;94.09
43820;BME280;67762;52.476;6.046;2023-04-01T15:46:56;100185.16;;;9.31;93.53
43820;BME280;67762;52.476;6.046;2023-04-01T15:49:41;100189.66;;;9.31;93.69
43820;BME280;67762;52.476;6.046;2023-04-01T16:03:14;100229.91;;;9.28;93.58
43820;BME280;67762;52.476;6.046;2023-04-01T16:16:25;100245.59;;;9.15;93.14
43820;BME280;67762;52.476;6.046;2023-04-01T16:22:05;100261.75;;;9.13;92.97
43820;BME280;67762;52.476;6.046;2023-04-01T16:32:46;100289.34;;;9.12;92.39
43820;BME280;67762;52.476;6.046;2023-04-01T16:38:09;100306.63;;;9.00;92.07
43820;BME280;67762;52.476;6.046;2023-04-01T16:40:53;100305.47;;;8.95;91.95
43820;BME280;67762;52.476;6.046;2023-04-01T16:43:28;100306.31;;;8.87;92.03
43820;BME280;67762;52.476;6.046;2023-04-01T16:51:18;100323.59;;;8.75;91.99
43820;BME280;67762;52.476;6.046;2023-04-01T16:53:53;100337.06;;;8.73;92.12
43820;BME280;67762;52.476;6.046;2023-04-01T16:56:38;100356.53;;;8.74;92.47
43820;BME280;67762;52.476;6.046;2023-04-01T17:01:49;100347.03;;;8.71;92.56
43820;BME280;67762;52.476;6.046;2023-04-01T17:21:47;100397.03;;;8.52;92.53
43820;BME280;67762;52.476;6.046;2023-04-01T17:29:33;100423.75;;;8.50;92.75
43820;BME280;67762;52.476;6.046;2023-04-01T17:35:26;100425.09;;;8.46;93.16
43820;BME280;67762;52.476;6.046;2023-04-01T17:45:56;100465.28;;;8.43;92.93
43820;BME280;67762;52.476;6.046;2023-04-01T17:48:31;100471.44;;;8.44;92.62
43820;BME280;67762;52.476;6.046;2023-04-01T17:51:12;100476.91;;;8.42;92.81
43820;BME280;67762;52.476;6.046;2023-04-01T17:56:35;100484.41;;;8.47;92.71
43820;BME280;67762;52.476;6.046;2023-04-01T17:59:24;100492.53;;;8.45;92.68
43820;BME280;67762;52.476;6.046;2023-04-01T18:04:59;100509.09;;;8.39;92.39
43820;BME280;67762;52.476;6.046;2023-04-01T18:10:08;100519.38;;;8.34;91.57
43820;BME280;67762;52.476;6.046;2023-04-01T18:21:24;100545.22;;;8.24;91.41
43820;BME280;67762;52.476;6.046;2023-04-01T18:23:55;100557.00;;;8.21;91.39
43820;BME280;67762;52.476;6.046;2023-04-01T18:26:29;100559.13;;;8.18;91.71
43820;BME280;67762;52.476;6.046;2023-04-01T18:31:45;100584.31;;;8.14;91.57
43820;BME280;67762;52.476;6.046;2023-04-01T18:36:55;100594.91;;;8.06;91.77
43820;BME280;67762;52.476;6.046;2023-04-01T18:39:38;100602.03;;;8.05;91.18
43820;BME280;67762;52.476;6.046;2023-04-01T18:42:19;100606.53;;;8.05;91.00
43820;BME280;67762;52.476;6.046;2023-04-01T18:44:56;100615.19;;;8.07;91.23
43820;BME280;67762;52.476;6.046;2023-04-01T18:50:11;100615.78;;;8.01;91.21
43820;BME280;67762;52.476;6.046;2023-04-01T18:52:42;100635.69;;;7.97;90.84
43820;BME280;67762;52.476;6.046;2023-04-01T18:55:31;100634.31;;;7.93;90.54
43820;BME280;67762;52.476;6.046;2023-04-01T18:58:13;100636.41;;;7.89;90.80
43820;BME280;67762;52.476;6.046;2023-04-01T19:00:49;100644.69;;;7.86;90.40
43820;BME280;67762;52.476;6.046;2023-04-01T19:03:26;100662.47;;;7.86;89.83
43820;BME280;67762;52.476;6.046;2023-04-01T19:05:54;100660.94;;;7.83;89.74
43820;BME280;67762;52.476;6.046;2023-04-01T19:08:32;100664.72;;;7.81;89.91
43820;BME280;67762;52.476;6.046;2023-04-01T19:11:23;100680.16;;;7.77;89.63
43820;BME280;67762;52.476;6.046;2023-04-01T19:14:25;100681.41;;;7.73;90.24
43820;BME280;67762;52.476;6.046;2023-04-01T19:19:41;100698.31;;;7.72;89.28
43820;BME280;67762;52.476;6.046;2023-04-01T19:22:20;100709.94;;;7.71;90.23
43820;BME280;67762;52.476;6.046;2023-04-01T19:27:31;100717.66;;;7.64;89.63
43820;BME280;67762;52.476;6.046;2023-04-01T19:33:19;100726.50;;;7.55;89.89
43820;BME280;67762;52.476;6.046;2023-04-01T19:43:50;100747.81;;;7.46;90.00
43820;BME280;67762;52.476;6.046;2023-04-01T19:52:08;100773.47;;;7.18;89.90
43820;BME280;67762;52.476;6.046;2023-04-01T20:00:11;100776.41;;;7.05;89.87
43820;BME280;67762;52.476;6.046;2023-04-01T20:03:04;100798.06;;;7.01;90.26
43820;BME280;67762;52.476;6.046;2023-04-01T20:06:05;100801.16;;;6.96;89.62
43820;BME280;67762;52.476;6.046;2023-04-01T20:11:21;100821.13;;;6.91;90.13
43820;BME280;67762;52.476;6.046;2023-04-01T20:17:24;100828.63;;;6.86;90.19
43820;BME280;67762;52.476;6.046;2023-04-01T20:19:57;100829.91;;;6.82;90.98
43820;BME280;67762;52.476;6.046;2023-04-01T20:22:34;100836.63;;;6.76;90.69
43820;BME280;67762;52.476;6.046;2023-04-01T20:27:44;100850.69;;;6.67;90.81
43820;BME280;67762;52.476;6.046;2023-04-01T20:36:26;100871.91;;;6.58;90.24
43820;BME280;67762;52.476;6.046;2023-04-01T20:42:24;100881.25;;;6.52;90.49
43820;BME280;67762;52.476;6.046;2023-04-01T20:44:59;100891.00;;;6.52;90.28
43820;BME280;67762;52.476;6.046;2023-04-01T20:50:24;100903.41;;;6.51;90.60
43820;BME280;67762;52.476;6.046;2023-04-01T20:53:02;100911.53;;;6.50;91.23
43820;BME280;67762;52.476;6.046;2023-04-01T20:58:32;100914.97;;;6.40;91.76
43820;BME280;67762;52.476;6.046;2023-04-01T21:09:21;100914.81;;;6.32;91.76
43820;BME280;67762;52.476;6.046;2023-04-01T21:12:13;100953.16;;;6.28;91.16
43820;BME280;67762;52.476;6.046;2023-04-01T21:20:22;100963.88;;;6.27;91.92
43820;BME280;67762;52.476;6.046;2023-04-01T21:31:18;101000.25;;;6.25;91.94
43820;BME280;67762;52.476;6.046;2023-04-01T21:34:07;101008.22;;;6.25;91.35
43820;BME280;67762;52.476;6.046;2023-04-01T21:37:14;101011.69;;;6.25;92.09
43820;BME280;67762;52.476;6.046;2023-04-01T21:48:08;101033.72;;;6.16;91.73
43820;BME280;67762;52.476;6.046;2023-04-01T21:51:07;101039.97;;;6.15;91.38
43820;BME280;67762;52.476;6.046;2023-04-01T22:13:55;101089.41;;;6.05;92.01
43820;BME280;67762;52.476;6.046;2023-04-01T22:21:58;101095.97;;;5.90;91.32
43820;BME280;67762;52.476;6.046;2023-04-01T22:27:04;101102.13;;;5.91;91.76
43820;BME280;67762;52.476;6.046;2023-04-01T22:29:43;101109.06;;;5.92;91.29
43820;BME280;67762;52.476;6.046;2023-04-01T22:32:28;101109.06;;;5.92;91.60
43820;BME280;67762;52.476;6.046;2023-04-01T22:42:53;101131.25;;;5.91;91.04
43820;BME280;67762;52.476;6.046;2023-04-01T22:45:57;101127.59;;;5.92;90.98
43820;BME280;67762;52.476;6.046;2023-04-01T22:48:44;101128.59;;;5.91;91.51
43820;BME280;67762;52.476;6.046;2023-04-01T22:57:08;101156.75;;;5.92;91.07
43820;BME280;67762;52.476;6.046;2023-04-01T22:59:39;101156.75;;;5.92;91.00
43820;BME280;67762;52.476;6.046;2023-04-01T23:03:33;101164.97;;;5.88;90.81
43820;BME280;67762;52.476;6.046;2023-04-01T23:06:02;101165.91;;;5.87;90.45
43820;BME280;67762;52.476;6.046;2023-04-01T23:11:31;101174.72;;;5.88;91.10
43820;BME280;67762;52.476;6.046;2023-04-01T23:19:41;101187.97;;;5.88;90.60
43820;BME280;67762;52.476;6.046;2023-04-01T23:27:37;101207.19;;;5.90;90.52
43820;BME280;67762;52.476;6.046;2023-04-01T23:36:00;101220.44;;;5.90;90.59
43820;BME280;67762;52.476;6.046;2023-04-01T23:38:33;101224.03;;;5.89;90.11